sensor_id;sensor_type;location;lat;lon;timestamp;pressure;altitude;pressure_sealevel;temperature;humidity
13767;BME280;47980;48.794;9.176;2023-02-11T00:01:24;100282.31;;;0.52;78.14
13767;BME280;47980;48.794;9.176;2023-02-11T00:03:57;100283.91;;;0.40;78.74
13767;BME280;47980;48.794;9.176;2023-02-11T00:06:30;100282.53;;;0.44;79.40
13767;BME280;47980;48.794;9.176;2023-02-11T00:09:03;100279.75;;;0.26;81.01
13767;BME280;47980;48.794;9.176;2023-02-11T00:11:35;100277.53;;;0.22;81.21
13767;BME280;47980;48.794;9.176;2023-02-11T00:14:09;100267.50;;;0.19;81.11
13767;BME280;47980;48.794;9.176;2023-02-11T00:16:41;100274.91;;;0.09;81.88
13767;BME280;47980;48.794;9.176;2023-02-11T00:19:12;100269.69;;;0.09;82.43
13767;BME280;47980;48.794;9.176;2023-02-11T00:21:44;100270.09;;;0.06;82.33
13767;BME280;47980;48.794;9.176;2023-02-11T00:24:15;100282.97;;;0.08;81.57
13767;BME280;47980;48.794;9.176;2023-02-11T00:26:47;100274.91;;;0.16;81.77
13767;BME280;47980;48.794;9.176;2023-02-11T00:29:19;100269.31;;;0.19;81.71
13767;BME280;47980;48.794;9.176;2023-02-11T00:31:51;100268.28;;;0.13;82.37
13767;BME280;47980;48.794;9.176;2023-02-11T00:34:22;100260.84;;;0.23;81.42
13767;BME280;47980;48.794;9.176;2023-02-11T00:36:54;100259.03;;;0.31;80.97
13767;BME280;47980;48.794;9.176;2023-02-11T00:39:25;100255.81;;;0.35;81.35
13767;BME280;47980;48.794;9.176;2023-02-11T00:41:57;100256.84;;;0.21;81.49
13767;BME280;47980;48.794;9.176;2023-02-11T00:44:30;100251.44;;;0.29;81.47
13767;BME280;47980;48.794;9.176;2023-02-11T00:47:01;100253.25;;;0.22;81.70
13767;BME280;47980;48.794;9.176;2023-02-11T00:49:33;100247.81;;;0.10;82.13
13767;BME280;47980;48.794;9.176;2023-02-11T00:52:06;100251.22;;;0.17;81.98
13767;BME280;47980;48.794;9.176;2023-02-11T00:54:37;100252.41;;;0.28;81.57
13767;BME280;47980;48.794;9.176;2023-02-11T00:57:09;100255.41;;;0.32;80.94
13767;BME280;47980;48.794;9.176;2023-02-11T00:59:41;100257.03;;;0.33;80.03
13767;BME280;47980;48.794;9.176;2023-02-11T01:02:13;100252.81;;;0.25;80.54
13767;BME280;47980;48.794;9.176;2023-02-11T01:04:45;100256.03;;;0.20;80.95
13767;BME280;47980;48.794;9.176;2023-02-11T01:07:16;100252.84;;;0.18;80.96
13767;BME280;47980;48.794;9.176;2023-02-11T01:09:48;100248.66;;;0.04;82.30
13767;BME280;47980;48.794;9.176;2023-02-11T01:12:19;100246.03;;;0.04;83.17
13767;BME280;47980;48.794;9.176;2023-02-11T01:14:52;100240.81;;;-0.03;83.41
13767;BME280;47980;48.794;9.176;2023-02-11T01:17:24;100228.38;;;-0.07;83.44
13767;BME280;47980;48.794;9.176;2023-02-11T01:19:55;100226.75;;;-0.02;82.89
13767;BME280;47980;48.794;9.176;2023-02-11T01:22:27;100224.38;;;-0.03;83.02
13767;BME280;47980;48.794;9.176;2023-02-11T01:24:58;100221.16;;;0.02;83.44
13767;BME280;47980;48.794;9.176;2023-02-11T01:27:30;100211.69;;;0.07;83.49
13767;BME280;47980;48.794;9.176;2023-02-11T01:30:04;100208.69;;;0.17;82.78
13767;BME280;47980;48.794;9.176;2023-02-11T01:32:36;100199.66;;;0.19;81.99
13767;BME280;47980;48.794;9.176;2023-02-11T01:35:07;100202.25;;;0.26;81.29
13767;BME280;47980;48.794;9.176;2023-02-11T01:37:39;100208.06;;;0.28;80.61
13767;BME280;47980;48.794;9.176;2023-02-11T01:40:14;100212.47;;;0.21;81.70
13767;BME280;47980;48.794;9.176;2023-02-11T01:42:46;100208.50;;;0.18;81.84
13767;BME280;47980;48.794;9.176;2023-02-11T01:45:58;100213.88;;;0.30;81.20
13767;BME280;47980;48.794;9.176;2023-02-11T01:48:33;100216.09;;;0.33;80.40
13767;BME280;47980;48.794;9.176;2023-02-11T01:51:11;100210.09;;;0.19;80.66
13767;BME280;47980;48.794;9.176;2023-02-11T01:53:44;100214.91;;;0.16;82.00
13767;BME280;47980;48.794;9.176;2023-02-11T01:56:36;100218.09;;;0.24;80.10
13767;BME280;47980;48.794;9.176;2023-02-11T01:59:30;100213.50;;;0.27;79.55
13767;BME280;47980;48.794;9.176;2023-02-11T02:02:08;100216.56;;;0.68;78.67
13767;BME280;47980;48.794;9.176;2023-02-11T02:04:47;100216.50;;;0.23;77.88
13767;BME280;47980;48.794;9.176;2023-02-11T02:07:28;100209.88;;;0.28;78.76
13767;BME280;47980;48.794;9.176;2023-02-11T02:10:05;100197.22;;;0.24;78.95
13767;BME280;47980;48.794;9.176;2023-02-11T02:12:38;100189.78;;;0.28;77.98
13767;BME280;47980;48.794;9.176;2023-02-11T02:15:17;100194.59;;;0.24;79.00
13767;BME280;47980;48.794;9.176;2023-02-11T02:18:00;100192.63;;;0.13;81.00
13767;BME280;47980;48.794;9.176;2023-02-11T02:21:04;100193.88;;;0.04;81.49
13767;BME280;47980;48.794;9.176;2023-02-11T02:23:56;100188.44;;;0.12;81.95
13767;BME280;47980;48.794;9.176;2023-02-11T02:26:48;100189.00;;;0.21;80.14
13767;BME280;47980;48.794;9.176;2023-02-11T02:32:38;100178.38;;;0.16;81.20
13767;BME280;47980;48.794;9.176;2023-02-11T02:35:21;100170.16;;;0.26;80.75
13767;BME280;47980;48.794;9.176;2023-02-11T02:37:58;100184.22;;;0.11;79.78
13767;BME280;47980;48.794;9.176;2023-02-11T02:40:33;100175.78;;;0.09;79.71
13767;BME280;47980;48.794;9.176;2023-02-11T02:43:08;100175.56;;;0.17;80.32
13767;BME280;47980;48.794;9.176;2023-02-11T02:45:41;100168.31;;;0.26;80.54
13767;BME280;47980;48.794;9.176;2023-02-11T02:48:25;100161.28;;;0.27;79.51
13767;BME280;47980;48.794;9.176;2023-02-11T02:51:14;100159.31;;;0.22;79.77
13767;BME280;47980;48.794;9.176;2023-02-11T02:53:56;100160.50;;;0.19;79.90
13767;BME280;47980;48.794;9.176;2023-02-11T02:56:33;100144.72;;;0.01;81.66
13767;BME280;47980;48.794;9.176;2023-02-11T02:59:23;100151.34;;;-0.03;81.72
13767;BME280;47980;48.794;9.176;2023-02-11T03:02:05;100139.88;;;0.05;82.11
13767;BME280;47980;48.794;9.176;2023-02-11T03:04:47;100144.09;;;0.06;79.93
13767;BME280;47980;48.794;9.176;2023-02-11T03:07:29;100143.06;;;0.13;80.22
13767;BME280;47980;48.794;9.176;2023-02-11T03:10:07;100150.94;;;0.00;81.88
13767;BME280;47980;48.794;9.176;2023-02-11T03:12:41;100142.91;;;0.02;81.23
13767;BME280;47980;48.794;9.176;2023-02-11T03:15:14;100139.91;;;-0.02;81.82
13767;BME280;47980;48.794;9.176;2023-02-11T03:17:50;100136.66;;;-0.04;82.39
13767;BME280;47980;48.794;9.176;2023-02-11T03:20:26;100138.66;;;0.07;82.13
13767;BME280;47980;48.794;9.176;2023-02-11T03:23:04;100128.22;;;0.07;82.42
13767;BME280;47980;48.794;9.176;2023-02-11T03:25:41;100133.41;;;0.20;81.60
13767;BME280;47980;48.794;9.176;2023-02-11T03:28:17;100139.41;;;0.21;81.31
13767;BME280;47980;48.794;9.176;2023-02-11T03:30:54;100131.19;;;0.17;81.42
13767;BME280;47980;48.794;9.176;2023-02-11T03:33:30;100124.41;;;0.03;81.74
13767;BME280;47980;48.794;9.176;2023-02-11T03:36:09;100127.66;;;-0.02;82.97
13767;BME280;47980;48.794;9.176;2023-02-11T03:38:46;100131.81;;;0.13;81.79
13767;BME280;47980;48.794;9.176;2023-02-11T03:41:22;100134.03;;;0.16;81.08
13767;BME280;47980;48.794;9.176;2023-02-11T03:43:56;100138.22;;;0.23;81.12
13767;BME280;47980;48.794;9.176;2023-02-11T03:46:31;100137.59;;;0.28;80.62
13767;BME280;47980;48.794;9.176;2023-02-11T03:49:08;100144.81;;;0.33;79.98
13767;BME280;47980;48.794;9.176;2023-02-11T03:51:43;100143.81;;;0.34;80.03
13767;BME280;47980;48.794;9.176;2023-02-11T03:54:18;100141.38;;;0.39;80.08
13767;BME280;47980;48.794;9.176;2023-02-11T03:56:53;100135.97;;;0.40;79.33
13767;BME280;47980;48.794;9.176;2023-02-11T03:59:25;100138.72;;;0.52;79.64
13767;BME280;47980;48.794;9.176;2023-02-11T04:01:57;100133.66;;;0.57;79.25
13767;BME280;47980;48.794;9.176;2023-02-11T04:04:28;100137.31;;;0.50;78.28
13767;BME280;47980;48.794;9.176;2023-02-11T04:07:01;100141.19;;;0.40;80.47
13767;BME280;47980;48.794;9.176;2023-02-11T04:09:33;100145.00;;;0.76;79.58
13767;BME280;47980;48.794;9.176;2023-02-11T04:12:06;100140.66;;;1.02;77.46
13767;BME280;47980;48.794;9.176;2023-02-11T04:14:38;100153.59;;;1.22;75.66
13767;BME280;47980;48.794;9.176;2023-02-11T04:17:09;100150.75;;;1.23;72.99
13767;BME280;47980;48.794;9.176;2023-02-11T04:19:41;100157.34;;;1.32;73.46
13767;BME280;47980;48.794;9.176;2023-02-11T04:22:13;100158.25;;;0.81;74.40
13767;BME280;47980;48.794;9.176;2023-02-11T04:24:45;100162.16;;;0.65;76.34
13767;BME280;47980;48.794;9.176;2023-02-11T04:27:16;100168.75;;;0.68;77.92
13767;BME280;47980;48.794;9.176;2023-02-11T04:29:48;100170.75;;;0.72;78.27
13767;BME280;47980;48.794;9.176;2023-02-11T04:32:20;100160.88;;;0.81;78.50
13767;BME280;47980;48.794;9.176;2023-02-11T04:34:51;100161.63;;;0.88;77.86
13767;BME280;47980;48.794;9.176;2023-02-11T04:37:25;100158.00;;;0.89;78.77
13767;BME280;47980;48.794;9.176;2023-02-11T04:39:56;100153.38;;;0.91;79.07
13767;BME280;47980;48.794;9.176;2023-02-11T04:42:28;100148.16;;;0.91;79.56
13767;BME280;47980;48.794;9.176;2023-02-11T04:44:59;100150.75;;;0.98;77.96
13767;BME280;47980;48.794;9.176;2023-02-11T04:47:31;100152.91;;;1.01;77.43
13767;BME280;47980;48.794;9.176;2023-02-11T04:50:03;100158.22;;;0.88;77.86
13767;BME280;47980;48.794;9.176;2023-02-11T04:52:36;100149.84;;;0.72;76.08
13767;BME280;47980;48.794;9.176;2023-02-11T04:55:07;100148.44;;;0.77;76.57
13767;BME280;47980;48.794;9.176;2023-02-11T04:57:38;100140.22;;;1.05;76.33
13767;BME280;47980;48.794;9.176;2023-02-11T05:00:11;100144.09;;;1.02;77.39
13767;BME280;47980;48.794;9.176;2023-02-11T05:02:42;100147.56;;;1.21;76.41
13767;BME280;47980;48.794;9.176;2023-02-11T05:05:14;100148.13;;;0.98;77.13
13767;BME280;47980;48.794;9.176;2023-02-11T05:07:47;100146.09;;;1.00;75.77
13767;BME280;47980;48.794;9.176;2023-02-11T05:10:18;100151.34;;;0.62;78.17
13767;BME280;47980;48.794;9.176;2023-02-11T05:12:50;100143.66;;;0.67;76.69
13767;BME280;47980;48.794;9.176;2023-02-11T05:15:21;100128.56;;;0.69;77.49
13767;BME280;47980;48.794;9.176;2023-02-11T05:17:53;100115.38;;;0.95;77.67
13767;BME280;47980;48.794;9.176;2023-02-11T05:20:25;100113.63;;;1.14;75.75
13767;BME280;47980;48.794;9.176;2023-02-11T05:22:58;100100.53;;;1.21;76.35
13767;BME280;47980;48.794;9.176;2023-02-11T05:25:29;100086.06;;;1.18;75.72
13767;BME280;47980;48.794;9.176;2023-02-11T05:28:01;100080.72;;;1.07;75.69
13767;BME280;47980;48.794;9.176;2023-02-11T05:30:33;100087.81;;;0.68;78.78
13767;BME280;47980;48.794;9.176;2023-02-11T05:33:04;100093.78;;;0.75;78.66
13767;BME280;47980;48.794;9.176;2023-02-11T05:35:36;100082.63;;;0.93;78.35
13767;BME280;47980;48.794;9.176;2023-02-11T05:38:09;100083.34;;;1.07;78.14
13767;BME280;47980;48.794;9.176;2023-02-11T05:40:41;100081.53;;;1.07;77.30
13767;BME280;47980;48.794;9.176;2023-02-11T05:43:12;100095.38;;;0.76;77.41
13767;BME280;47980;48.794;9.176;2023-02-11T05:45:44;100084.25;;;1.19;76.62
13767;BME280;47980;48.794;9.176;2023-02-11T05:48:16;100086.63;;;1.27;75.65
13767;BME280;47980;48.794;9.176;2023-02-11T05:50:47;100087.41;;;1.28;74.88
13767;BME280;47980;48.794;9.176;2023-02-11T05:53:20;100091.28;;;1.18;74.78
13767;BME280;47980;48.794;9.176;2023-02-11T05:55:52;100093.13;;;0.86;76.91
13767;BME280;47980;48.794;9.176;2023-02-11T05:58:23;100083.38;;;1.00;76.65
13767;BME280;47980;48.794;9.176;2023-02-11T06:00:55;100086.28;;;1.17;76.41
13767;BME280;47980;48.794;9.176;2023-02-11T06:03:26;100095.13;;;0.91;77.09
13767;BME280;47980;48.794;9.176;2023-02-11T06:05:58;100101.25;;;0.71;78.93
13767;BME280;47980;48.794;9.176;2023-02-11T06:08:30;100097.91;;;0.96;78.50
13767;BME280;47980;48.794;9.176;2023-02-11T06:11:02;100102.59;;;1.12;76.24
13767;BME280;47980;48.794;9.176;2023-02-11T06:13:34;100110.31;;;1.01;77.13
13767;BME280;47980;48.794;9.176;2023-02-11T06:16:06;100120.19;;;0.99;77.53
13767;BME280;47980;48.794;9.176;2023-02-11T06:18:37;100117.78;;;0.97;78.14
13767;BME280;47980;48.794;9.176;2023-02-11T06:21:09;100117.88;;;1.09;78.56
13767;BME280;47980;48.794;9.176;2023-02-11T06:23:42;100113.94;;;1.31;77.59
13767;BME280;47980;48.794;9.176;2023-02-11T06:26:16;100103.72;;;1.48;76.42
13767;BME280;47980;48.794;9.176;2023-02-11T06:28:49;100105.06;;;1.32;76.53
13767;BME280;47980;48.794;9.176;2023-02-11T06:31:20;100110.00;;;1.40;76.52
13767;BME280;47980;48.794;9.176;2023-02-11T06:33:52;100098.72;;;1.47;76.50
13767;BME280;47980;48.794;9.176;2023-02-11T06:36:24;100107.69;;;1.01;77.25
13767;BME280;47980;48.794;9.176;2023-02-11T06:38:57;100104.00;;;0.83;79.25
13767;BME280;47980;48.794;9.176;2023-02-11T06:41:28;100105.75;;;1.21;77.84
13767;BME280;47980;48.794;9.176;2023-02-11T06:44:00;100105.56;;;1.16;77.00
13767;BME280;47980;48.794;9.176;2023-02-11T06:46:31;100109.63;;;1.37;75.45
13767;BME280;47980;48.794;9.176;2023-02-11T06:49:03;100116.69;;;1.36;74.93
13767;BME280;47980;48.794;9.176;2023-02-11T06:51:35;100119.06;;;1.38;75.19
13767;BME280;47980;48.794;9.176;2023-02-11T06:54:07;100125.28;;;1.43;75.78
13767;BME280;47980;48.794;9.176;2023-02-11T06:56:39;100116.84;;;1.41;75.20
13767;BME280;47980;48.794;9.176;2023-02-11T06:59:14;100120.16;;;1.55;75.65
13767;BME280;47980;48.794;9.176;2023-02-11T07:01:46;100125.22;;;1.50;74.93
13767;BME280;47980;48.794;9.176;2023-02-11T07:04:17;100135.44;;;1.27;75.86
13767;BME280;47980;48.794;9.176;2023-02-11T07:06:49;100127.19;;;1.55;74.65
13767;BME280;47980;48.794;9.176;2023-02-11T07:09:22;100127.47;;;1.72;73.35
13767;BME280;47980;48.794;9.176;2023-02-11T07:11:53;100115.50;;;1.57;74.63
13767;BME280;47980;48.794;9.176;2023-02-11T07:14:25;100119.41;;;1.48;74.94
13767;BME280;47980;48.794;9.176;2023-02-11T07:16:56;100114.00;;;1.68;74.02
13767;BME280;47980;48.794;9.176;2023-02-11T07:19:28;100117.84;;;1.65;74.34
13767;BME280;47980;48.794;9.176;2023-02-11T07:21:59;100119.47;;;1.85;74.93
13767;BME280;47980;48.794;9.176;2023-02-11T07:24:32;100121.06;;;1.67;74.95
13767;BME280;47980;48.794;9.176;2023-02-11T07:27:04;100114.88;;;1.80;74.80
13767;BME280;47980;48.794;9.176;2023-02-11T07:29:35;100112.22;;;2.05;72.39
13767;BME280;47980;48.794;9.176;2023-02-11T07:32:07;100116.28;;;2.01;72.19
13767;BME280;47980;48.794;9.176;2023-02-11T07:34:39;100118.53;;;1.98;73.36
13767;BME280;47980;48.794;9.176;2023-02-11T07:37:10;100135.09;;;1.91;74.00
13767;BME280;47980;48.794;9.176;2023-02-11T07:39:43;100128.69;;;1.87;74.21
13767;BME280;47980;48.794;9.176;2023-02-11T07:42:15;100129.97;;;2.22;72.97
13767;BME280;47980;48.794;9.176;2023-02-11T07:44:46;100139.03;;;2.01;72.90
13767;BME280;47980;48.794;9.176;2023-02-11T07:47:18;100136.78;;;2.04;74.86
13767;BME280;47980;48.794;9.176;2023-02-11T07:49:49;100124.69;;;2.03;75.04
13767;BME280;47980;48.794;9.176;2023-02-11T07:52:21;100128.19;;;2.34;73.18
13767;BME280;47980;48.794;9.176;2023-02-11T07:54:54;100125.16;;;2.67;72.40
13767;BME280;47980;48.794;9.176;2023-02-11T07:57:26;100117.94;;;2.51;71.20
13767;BME280;47980;48.794;9.176;2023-02-11T07:59:57;100111.56;;;2.88;71.02
13767;BME280;47980;48.794;9.176;2023-02-11T08:02:29;100111.84;;;3.10;69.99
13767;BME280;47980;48.794;9.176;2023-02-11T08:05:00;100108.69;;;3.20;70.10
13767;BME280;47980;48.794;9.176;2023-02-11T08:07:32;100101.63;;;3.32;70.56
13767;BME280;47980;48.794;9.176;2023-02-11T08:10:08;100095.72;;;3.49;69.00
13767;BME280;47980;48.794;9.176;2023-02-11T08:12:39;100092.63;;;3.75;68.53
13767;BME280;47980;48.794;9.176;2023-02-11T08:15:11;100085.84;;;3.91;67.66
13767;BME280;47980;48.794;9.176;2023-02-11T08:17:42;100093.72;;;4.03;67.60
13767;BME280;47980;48.794;9.176;2023-02-11T08:20:14;100103.41;;;4.02;67.99
13767;BME280;47980;48.794;9.176;2023-02-11T08:22:46;100109.97;;;4.28;67.25
13767;BME280;47980;48.794;9.176;2023-02-11T08:25:19;100111.31;;;4.43;65.43
13767;BME280;47980;48.794;9.176;2023-02-11T08:27:50;100118.78;;;4.34;65.33
13767;BME280;47980;48.794;9.176;2023-02-11T08:30:22;100120.44;;;4.00;66.30
13767;BME280;47980;48.794;9.176;2023-02-11T08:32:54;100118.84;;;4.10;66.86
13767;BME280;47980;48.794;9.176;2023-02-11T08:35:26;100123.09;;;4.28;65.35
13767;BME280;47980;48.794;9.176;2023-02-11T08:37:57;100128.47;;;3.81;67.48
13767;BME280;47980;48.794;9.176;2023-02-11T08:40:30;100125.34;;;3.84;67.35
13767;BME280;47980;48.794;9.176;2023-02-11T08:43:02;100127.88;;;3.79;67.38
13767;BME280;47980;48.794;9.176;2023-02-11T08:45:33;100117.75;;;3.59;66.84
13767;BME280;47980;48.794;9.176;2023-02-11T08:48:05;100124.22;;;3.57;68.54
13767;BME280;47980;48.794;9.176;2023-02-11T08:50:37;100126.94;;;3.74;68.51
13767;BME280;47980;48.794;9.176;2023-02-11T08:53:09;100118.84;;;3.99;67.27
13767;BME280;47980;48.794;9.176;2023-02-11T08:55:48;100108.34;;;3.99;65.65
13767;BME280;47980;48.794;9.176;2023-02-11T08:58:20;100103.75;;;4.06;66.31
13767;BME280;47980;48.794;9.176;2023-02-11T09:00:52;100106.16;;;4.48;65.82
13767;BME280;47980;48.794;9.176;2023-02-11T09:03:24;100104.28;;;4.60;65.11
13767;BME280;47980;48.794;9.176;2023-02-11T09:05:55;100115.63;;;4.49;65.28
13767;BME280;47980;48.794;9.176;2023-02-11T09:08:27;100117.69;;;4.75;64.99
13767;BME280;47980;48.794;9.176;2023-02-11T09:11:00;100116.25;;;5.13;64.16
13767;BME280;47980;48.794;9.176;2023-02-11T09:13:32;100128.38;;;5.14;63.73
13767;BME280;47980;48.794;9.176;2023-02-11T09:16:04;100125.19;;;5.12;63.25
13767;BME280;47980;48.794;9.176;2023-02-11T09:18:36;100120.63;;;5.07;63.21
13767;BME280;47980;48.794;9.176;2023-02-11T09:21:08;100111.50;;;4.81;63.65
13767;BME280;47980;48.794;9.176;2023-02-11T09:23:40;100113.41;;;4.69;64.99
13767;BME280;47980;48.794;9.176;2023-02-11T09:26:16;100103.94;;;4.85;65.50
13767;BME280;47980;48.794;9.176;2023-02-11T09:28:48;100110.41;;;5.11;63.59
13767;BME280;47980;48.794;9.176;2023-02-11T09:31:22;100107.09;;;5.32;63.03
13767;BME280;47980;48.794;9.176;2023-02-11T09:33:55;100104.63;;;5.43;63.96
13767;BME280;47980;48.794;9.176;2023-02-11T09:36:29;100096.13;;;5.74;61.86
13767;BME280;47980;48.794;9.176;2023-02-11T09:39:01;100089.66;;;5.82;61.41
13767;BME280;47980;48.794;9.176;2023-02-11T09:44:37;100090.16;;;6.23;59.89
13767;BME280;47980;48.794;9.176;2023-02-11T09:47:20;100085.69;;;6.23;60.38
13767;BME280;47980;48.794;9.176;2023-02-11T09:49:57;100097.31;;;6.49;60.07
13767;BME280;47980;48.794;9.176;2023-02-11T09:52:36;100098.91;;;6.78;59.81
13767;BME280;47980;48.794;9.176;2023-02-11T09:55:17;100102.88;;;7.07;59.52
13767;BME280;47980;48.794;9.176;2023-02-11T09:57:49;100105.59;;;7.17;58.84
13767;BME280;47980;48.794;9.176;2023-02-11T10:00:24;100111.66;;;7.13;58.00
13767;BME280;47980;48.794;9.176;2023-02-11T10:06:16;100113.69;;;7.38;58.28
13767;BME280;47980;48.794;9.176;2023-02-11T10:09:00;100120.09;;;7.15;57.42
13767;BME280;47980;48.794;9.176;2023-02-11T10:11:40;100116.25;;;6.95;58.37
13767;BME280;47980;48.794;9.176;2023-02-11T10:14:41;100124.75;;;6.75;58.33
13767;BME280;47980;48.794;9.176;2023-02-11T10:17:26;100125.34;;;6.56;58.93
13767;BME280;47980;48.794;9.176;2023-02-11T10:20:15;100117.22;;;6.89;59.88
13767;BME280;47980;48.794;9.176;2023-02-11T10:22:49;100116.56;;;7.04;58.34
13767;BME280;47980;48.794;9.176;2023-02-11T10:25:24;100118.09;;;6.46;60.77
13767;BME280;47980;48.794;9.176;2023-02-11T10:27:58;100116.94;;;6.86;59.24
13767;BME280;47980;48.794;9.176;2023-02-11T10:30:32;100117.47;;;6.61;59.34
13767;BME280;47980;48.794;9.176;2023-02-11T10:33:14;100115.25;;;6.25;61.92
13767;BME280;47980;48.794;9.176;2023-02-11T10:35:50;100120.81;;;6.51;60.95
13767;BME280;47980;48.794;9.176;2023-02-11T10:38:22;100117.91;;;6.53;60.25
13767;BME280;47980;48.794;9.176;2023-02-11T10:40:53;100122.66;;;6.78;60.13
13767;BME280;47980;48.794;9.176;2023-02-11T10:43:26;100116.28;;;7.00;59.99
13767;BME280;47980;48.794;9.176;2023-02-11T10:46:02;100109.75;;;7.08;60.16
13767;BME280;47980;48.794;9.176;2023-02-11T10:48:39;100112.91;;;7.05;60.61
13767;BME280;47980;48.794;9.176;2023-02-11T10:51:16;100098.44;;;7.13;59.25
13767;BME280;47980;48.794;9.176;2023-02-11T10:53:49;100097.78;;;6.95;59.40
13767;BME280;47980;48.794;9.176;2023-02-11T10:56:30;100096.00;;;7.01;59.63
13767;BME280;47980;48.794;9.176;2023-02-11T10:59:04;100080.84;;;7.23;59.34
13767;BME280;47980;48.794;9.176;2023-02-11T11:01:39;100078.72;;;7.20;60.01
13767;BME280;47980;48.794;9.176;2023-02-11T11:04:33;100079.22;;;7.17;58.61
13767;BME280;47980;48.794;9.176;2023-02-11T11:07:15;100071.16;;;7.34;59.63
13767;BME280;47980;48.794;9.176;2023-02-11T11:09:50;100063.63;;;7.58;59.39
13767;BME280;47980;48.794;9.176;2023-02-11T11:12:31;100061.00;;;7.58;59.60
13767;BME280;47980;48.794;9.176;2023-02-11T11:15:15;100048.69;;;7.74;58.88
13767;BME280;47980;48.794;9.176;2023-02-11T11:17:48;100053.19;;;7.79;58.73
13767;BME280;47980;48.794;9.176;2023-02-11T11:20:26;100054.88;;;8.00;58.89
13767;BME280;47980;48.794;9.176;2023-02-11T11:23:15;100055.72;;;8.16;57.71
13767;BME280;47980;48.794;9.176;2023-02-11T11:25:59;100063.69;;;8.21;57.87
13767;BME280;47980;48.794;9.176;2023-02-11T11:28:35;100065.81;;;8.29;56.79
13767;BME280;47980;48.794;9.176;2023-02-11T11:31:12;100072.06;;;8.08;57.28
13767;BME280;47980;48.794;9.176;2023-02-11T11:33:46;100070.81;;;8.26;57.68
13767;BME280;47980;48.794;9.176;2023-02-11T11:36:21;100071.41;;;8.38;56.76
13767;BME280;47980;48.794;9.176;2023-02-11T11:38:56;100056.66;;;8.57;57.44
13767;BME280;47980;48.794;9.176;2023-02-11T11:41:30;100059.31;;;8.62;57.82
13767;BME280;47980;48.794;9.176;2023-02-11T11:44:18;100065.69;;;8.87;56.30
13767;BME280;47980;48.794;9.176;2023-02-11T11:47:17;100053.50;;;9.01;55.41
13767;BME280;47980;48.794;9.176;2023-02-11T11:50:00;100047.94;;;9.03;55.38
13767;BME280;47980;48.794;9.176;2023-02-11T11:52:42;100056.91;;;8.66;55.48
13767;BME280;47980;48.794;9.176;2023-02-11T11:55:19;100041.34;;;9.05;55.90
13767;BME280;47980;48.794;9.176;2023-02-11T11:57:52;100057.47;;;9.19;54.55
13767;BME280;47980;48.794;9.176;2023-02-11T12:00:27;100056.09;;;9.47;54.73
13767;BME280;47980;48.794;9.176;2023-02-11T12:03:32;100046.25;;;9.68;54.05
13767;BME280;47980;48.794;9.176;2023-02-11T12:06:20;100059.25;;;9.70;55.07
13767;BME280;47980;48.794;9.176;2023-02-11T12:09:03;100042.84;;;9.52;56.10
13767;BME280;47980;48.794;9.176;2023-02-11T12:11:55;100040.25;;;9.37;55.85
13767;BME280;47980;48.794;9.176;2023-02-11T12:14:36;100044.44;;;9.43;55.59
13767;BME280;47980;48.794;9.176;2023-02-11T12:17:19;100044.75;;;9.31;56.23
13767;BME280;47980;48.794;9.176;2023-02-11T12:20:10;100048.97;;;9.48;55.98
13767;BME280;47980;48.794;9.176;2023-02-11T12:22:58;100052.06;;;9.65;55.08
13767;BME280;47980;48.794;9.176;2023-02-11T12:25:37;100045.13;;;9.79;55.12
13767;BME280;47980;48.794;9.176;2023-02-11T12:28:24;100042.75;;;10.43;54.50
13767;BME280;47980;48.794;9.176;2023-02-11T12:31:07;100045.28;;;10.08;53.58
13767;BME280;47980;48.794;9.176;2023-02-11T12:34:00;100051.69;;;10.02;55.19
13767;BME280;47980;48.794;9.176;2023-02-11T12:36:48;100054.38;;;9.92;55.74
13767;BME280;47980;48.794;9.176;2023-02-11T12:39:32;100051.31;;;10.24;55.85
13767;BME280;47980;48.794;9.176;2023-02-11T12:42:17;100064.13;;;10.02;55.11
13767;BME280;47980;48.794;9.176;2023-02-11T12:45:21;100054.03;;;10.09;54.69
13767;BME280;47980;48.794;9.176;2023-02-11T12:48:08;100055.94;;;10.03;55.14
13767;BME280;47980;48.794;9.176;2023-02-11T12:50:49;100051.44;;;9.94;56.37
13767;BME280;47980;48.794;9.176;2023-02-11T12:53:38;100049.44;;;9.70;56.00
13767;BME280;47980;48.794;9.176;2023-02-11T12:56:17;100042.50;;;9.84;55.88
13767;BME280;47980;48.794;9.176;2023-02-11T12:58:54;100044.88;;;9.81;55.62
13767;BME280;47980;48.794;9.176;2023-02-11T13:01:30;100037.47;;;9.73;57.20
13767;BME280;47980;48.794;9.176;2023-02-11T13:04:06;100034.22;;;9.96;56.11
13767;BME280;47980;48.794;9.176;2023-02-11T13:06:42;100031.34;;;9.82;56.92
13767;BME280;47980;48.794;9.176;2023-02-11T13:09:17;100023.19;;;9.74;56.56
13767;BME280;47980;48.794;9.176;2023-02-11T13:11:54;100004.88;;;9.77;56.95
13767;BME280;47980;48.794;9.176;2023-02-11T13:14:33;100018.41;;;9.71;57.91
13767;BME280;47980;48.794;9.176;2023-02-11T13:17:13;100013.72;;;9.52;58.14
13767;BME280;47980;48.794;9.176;2023-02-11T13:19:51;100012.97;;;9.26;59.25
13767;BME280;47980;48.794;9.176;2023-02-11T13:22:28;100006.63;;;9.27;59.14
13767;BME280;47980;48.794;9.176;2023-02-11T13:25:05;100008.47;;;9.37;60.74
13767;BME280;47980;48.794;9.176;2023-02-11T13:27:49;100003.94;;;9.32;61.46
13767;BME280;47980;48.794;9.176;2023-02-11T13:30:32;100007.59;;;9.57;61.06
13767;BME280;47980;48.794;9.176;2023-02-11T13:33:29;100011.66;;;9.19;62.93
13767;BME280;47980;48.794;9.176;2023-02-11T13:36:16;100011.97;;;8.86;63.37
13767;BME280;47980;48.794;9.176;2023-02-11T13:38:55;100007.97;;;8.84;63.70
13767;BME280;47980;48.794;9.176;2023-02-11T13:41:29;100004.28;;;8.85;65.05
13767;BME280;47980;48.794;9.176;2023-02-11T13:44:12;100009.81;;;9.09;63.82
13767;BME280;47980;48.794;9.176;2023-02-11T13:47:03;100014.06;;;9.15;63.93
13767;BME280;47980;48.794;9.176;2023-02-11T13:49:37;100012.41;;;9.45;63.63
13767;BME280;47980;48.794;9.176;2023-02-11T13:52:22;100011.03;;;9.57;63.55
13767;BME280;47980;48.794;9.176;2023-02-11T13:55:06;100012.09;;;9.56;63.95